KSHV/SHV METAR and TAF weather

Enter ICAO airport designator
Station Type Date Time Source
KSHV METAR 2019/12/07 16:56 UTC NOAA

KSHV 071656Z 00000KT 10SM FEW016 BKN280 13/08 A3032 RMK AO2 SLP267 T01280083 $


Station Type Date Time Source
KSHV Decoded METAR 2019/12/07 16:56 UTC NOAA

SHREVEPORT REGIONAL AIRPORT, LA, United States (KSHV) 32-27N 93-50W 80M
Dec 07, 2019 - 11:56 AM EST / 2019.12.07 1656 UTC
Wind: Calm:0
Visibility: 10 mile(s):0
Sky conditions: mostly cloudy
Temperature: 55.0 F (12.8 C)
Dew Point: 46.9 F (8.3 C)
Relative Humidity: 74%
Pressure (altimeter): 30.32 in. Hg (1026 hPa)
ob: KSHV 071656Z 00000KT 10SM FEW016 BKN280 13/08 A3032 RMK AO2 SLP267 T01280083
cycle: 17

Station Type Date Time Source
KSHV TAF 2019/12/07 18:22 UTC NOAA

TAF KSHV 071720Z 0718/0818 05005KT P6SM SCT035 BKN150
FM072100 03004KT P6SM OVC050
FM080000 VRB03KT P6SM FEW250
FM080900 12003KT 1SM BR OVC020
FM081530 15004KT P6SM OVC015

Example: see airport list